Time;durP1;ratioP1;P1;durP2;ratioP2;P2;SDS_P1;SDS_P2;PMS_P1;PMS_P2;Temp;Humidity;BMP_temperature;BMP_pressure;BME280_temperature;BME280_humidity;BME280_pressure;Samples;Min_cycle;Max_cycle;Signal;HPM_P1;HPM_P2
2023/04/29 00:02:04;;;;;;;7.63;6.27;;;11.60;99.90;;;;;;5073225;28;20175;-74
2023/04/29 00:04:29;;;;;;;6.43;5.87;;;11.60;99.90;;;;;;5073938;28;20210;-74
2023/04/29 00:06:55;;;;;;;7.20;6.50;;;11.60;99.90;;;;;;5075045;28;20179;-73
2023/04/29 00:09:21;;;;;;;6.30;5.70;;;11.60;99.90;;;;;;5075991;28;20208;-75
2023/04/29 00:11:49;;;;;;;6.63;6.03;;;11.60;99.90;;;;;;5073720;28;20607;-74
2023/04/29 00:14:15;;;;;;;7.03;6.30;;;11.60;99.90;;;;;;5073632;28;20178;-74
2023/04/29 00:16:42;;;;;;;7.67;6.27;;;11.60;99.90;;;;;;5072342;28;20707;-74
2023/04/29 00:19:08;;;;;;;6.87;6.17;;;11.60;99.90;;;;;;5073756;28;20167;-74
2023/04/29 00:21:34;;;;;;;10.20;6.30;;;11.60;99.90;;;;;;5073323;28;20173;-74
2023/04/29 00:23:59;;;;;;;6.63;5.87;;;11.60;99.90;;;;;;5073464;28;20172;-73
2023/04/29 00:26:25;;;;;;;6.60;6.00;;;11.60;99.90;;;;;;5073391;28;20789;-75
2023/04/29 00:28:51;;;;;;;7.40;6.70;;;11.50;99.90;;;;;;5073332;28;20268;-75
2023/04/29 00:31:16;;;;;;;9.43;7.27;;;11.50;99.90;;;;;;5072895;28;20177;-74
2023/04/29 00:33:42;;;;;;;12.23;8.00;;;11.50;99.90;;;;;;5072846;28;20179;-74
2023/04/29 00:36:09;;;;;;;9.30;8.37;;;11.40;99.90;;;;;;5072804;28;20175;-74
2023/04/29 00:38:35;;;;;;;9.43;8.23;;;11.40;99.90;;;;;;5072499;28;20202;-75
2023/04/29 00:41:02;;;;;;;9.00;8.10;;;11.40;99.90;;;;;;5076158;28;20614;-75
2023/04/29 00:43:27;;;;;;;9.77;8.60;;;11.30;99.90;;;;;;5081967;28;20306;-77
2023/04/29 00:45:53;;;;;;;10.40;8.87;;;11.20;99.90;;;;;;5087243;28;20202;-76
2023/04/29 00:48:19;;;;;;;10.03;8.93;;;11.30;99.90;;;;;;5074238;28;20187;-75
2023/04/29 00:50:48;;;;;;;10.20;9.07;;;11.20;99.90;;;;;;5073064;28;20179;-75
2023/04/29 00:53:14;;;;;;;12.67;9.23;;;11.10;99.90;;;;;;5073624;28;20192;-75
2023/04/29 00:55:41;;;;;;;12.60;9.50;;;11.10;99.90;;;;;;5077951;28;20244;-75
2023/04/29 00:58:08;;;;;;;9.93;8.20;;;11.10;99.90;;;;;;5074453;28;20182;-74
2023/04/29 01:00:35;;;;;;;9.20;8.37;;;11.00;99.90;;;;;;5077391;28;20173;-74
2023/04/29 01:03:02;;;;;;;11.07;8.80;;;10.90;99.90;;;;;;5084188;28;20634;-74
2023/04/29 01:05:28;;;;;;;12.50;9.03;;;10.90;99.90;;;;;;5080028;28;20202;-74
2023/04/29 01:08:21;;;;;;;10.73;8.63;;;10.90;99.90;;;;;;5072552;28;20191;-74
2023/04/29 01:11:09;;;;;;;10.10;8.83;;;10.90;99.90;;;;;;5072776;28;20632;-74
2023/04/29 01:13:57;;;;;;;11.10;9.20;;;10.80;99.90;;;;;;5075425;28;20211;-74
2023/04/29 01:16:43;;;;;;;11.57;9.17;;;10.90;99.90;;;;;;5071727;28;20159;-75
2023/04/29 01:19:45;;;;;;;9.03;7.97;;;10.90;99.90;;;;;;5072473;28;20173;-75
2023/04/29 01:22:20;;;;;;;12.53;9.60;;;11.00;99.90;;;;;;5072731;28;20223;-74
2023/04/29 01:24:47;;;;;;;10.60;9.13;;;10.90;99.90;;;;;;5072773;28;20288;-75
2023/04/29 01:27:51;;;;;;;9.83;8.80;;;10.90;99.90;;;;;;5072754;28;20189;-75
2023/04/29 01:30:38;;;;;;;9.87;8.87;;;11.00;99.90;;;;;;5072984;28;20170;-75
2023/04/29 01:33:25;;;;;;;10.13;9.03;;;10.90;99.90;;;;;;5072632;28;20171;-75
2023/04/29 01:36:09;;;;;;;9.80;8.23;;;10.90;99.90;;;;;;5072540;28;20232;-75
2023/04/29 01:38:52;;;;;;;10.70;8.53;;;11.00;99.90;;;;;;5072139;28;20173;-75
2023/04/29 01:41:38;;;;;;;9.77;8.83;;;11.00;99.90;;;;;;5074816;28;20239;-76
2023/04/29 01:44:11;;;;;;;9.40;8.40;;;11.10;99.90;;;;;;5072451;28;20219;-75
2023/04/29 01:46:37;;;;;;;9.57;8.63;;;11.00;99.90;;;;;;5072312;28;20624;-75
2023/04/29 01:49:03;;;;;;;9.80;8.80;;;11.10;99.90;;;;;;5071013;28;20241;-74
2023/04/29 01:51:29;;;;;;;11.03;9.20;;;11.10;99.90;;;;;;5073852;28;20175;-74
2023/04/29 01:53:54;;;;;;;9.13;8.23;;;11.00;99.90;;;;;;5075030;28;20164;-74
2023/04/29 01:56:20;;;;;;;10.50;9.23;;;11.10;99.90;;;;;;5072496;28;20182;-75
2023/04/29 01:58:46;;;;;;;11.10;8.63;;;11.00;99.90;;;;;;5072234;28;20213;-74
2023/04/29 02:01:13;;;;;;;12.63;9.37;;;11.00;99.90;;;;;;5072255;28;20810;-76
2023/04/29 02:03:38;;;;;;;12.00;9.73;;;11.00;99.90;;;;;;5070565;28;20187;-75
2023/04/29 02:06:05;;;;;;;10.63;9.63;;;11.00;99.90;;;;;;5074164;28;20210;-74
2023/04/29 02:08:31;;;;;;;11.57;9.90;;;11.00;99.90;;;;;;5082180;28;20178;-75
2023/04/29 02:10:59;;;;;;;13.97;9.73;;;11.10;99.90;;;;;;5081859;28;20174;-77
2023/04/29 02:13:25;;;;;;;10.30;9.30;;;11.10;99.90;;;;;;5073070;28;20170;-76
2023/04/29 02:15:51;;;;;;;11.53;9.37;;;11.10;99.90;;;;;;5093091;28;20175;-73
2023/04/29 02:18:17;;;;;;;10.47;8.97;;;11.00;99.90;;;;;;5080708;28;20193;-74
2023/04/29 02:20:43;;;;;;;13.70;9.80;;;11.00;99.90;;;;;;5075638;28;20532;-74
2023/04/29 02:23:09;;;;;;;11.17;10.03;;;11.00;99.90;;;;;;5075881;28;20229;-74
2023/04/29 02:25:35;;;;;;;11.50;9.57;;;11.00;99.90;;;;;;5074010;28;20214;-74
2023/04/29 02:28:00;;;;;;;12.27;9.37;;;10.90;99.90;;;;;;5075160;28;20171;-74
2023/04/29 02:30:26;;;;;;;11.63;9.63;;;10.80;99.90;;;;;;5075503;28;20198;-76
2023/04/29 02:32:53;;;;;;;11.63;9.83;;;10.80;99.90;;;;;;5075433;28;20678;-75
2023/04/29 02:35:19;;;;;;;11.10;9.60;;;10.70;99.90;;;;;;5075831;28;20205;-75
2023/04/29 02:37:44;;;;;;;9.53;8.57;;;10.70;99.90;;;;;;5075390;28;20210;-74
2023/04/29 02:40:11;;;;;;;10.17;9.17;;;10.70;99.90;;;;;;5075196;28;20248;-75
2023/04/29 02:42:37;;;;;;;9.43;8.30;;;10.60;99.90;;;;;;5074736;28;20189;-75
2023/04/29 02:45:04;;;;;;;9.87;7.97;;;10.60;99.90;;;;;;5074731;28;20606;-74
2023/04/29 02:47:29;;;;;;;8.83;7.97;;;10.40;99.90;;;;;;5074174;28;20600;-74
2023/04/29 02:49:56;;;;;;;10.40;8.67;;;10.40;99.90;;;;;;5077133;28;20293;-75
2023/04/29 02:52:22;;;;;;;10.13;8.70;;;10.30;99.90;;;;;;5078723;28;20256;-75
2023/04/29 02:54:48;;;;;;;9.47;8.07;;;10.30;99.90;;;;;;5076942;28;20276;-75
2023/04/29 02:57:14;;;;;;;10.67;8.20;;;10.30;99.90;;;;;;5078064;28;20184;-74
2023/04/29 02:59:39;;;;;;;10.43;8.53;;;10.30;99.90;;;;;;5074945;28;20169;-74
2023/04/29 03:02:05;;;;;;;9.90;7.63;;;10.30;99.90;;;;;;5073315;28;20272;-74
2023/04/29 03:04:31;;;;;;;9.00;8.10;;;10.30;99.90;;;;;;5074604;28;20210;-74
2023/04/29 03:06:57;;;;;;;8.77;7.77;;;10.30;99.90;;;;;;5075178;28;20186;-74
2023/04/29 03:09:23;;;;;;;10.77;8.03;;;10.30;99.90;;;;;;5074870;28;20163;-75
2023/04/29 03:11:49;;;;;;;10.33;8.20;;;10.30;99.90;;;;;;5074963;28;20180;-77
2023/04/29 03:14:15;;;;;;;8.50;7.70;;;10.20;99.90;;;;;;5073654;28;20171;-74
2023/04/29 03:16:41;;;;;;;9.00;7.93;;;10.20;99.90;;;;;;5075378;28;20167;-74
2023/04/29 03:19:07;;;;;;;10.57;8.40;;;10.20;99.90;;;;;;5074475;28;20188;-75
2023/04/29 03:21:33;;;;;;;11.77;9.07;;;10.20;99.90;;;;;;5074601;28;20169;-74
2023/04/29 03:23:59;;;;;;;8.67;7.40;;;10.20;99.90;;;;;;5074138;28;20184;-74
2023/04/29 03:26:26;;;;;;;12.03;7.70;;;10.20;99.90;;;;;;5077115;28;20219;-75
2023/04/29 03:28:51;;;;;;;9.17;8.17;;;10.30;99.90;;;;;;5074359;28;20230;-76
2023/04/29 03:31:19;;;;;;;9.13;8.23;;;10.30;99.90;;;;;;5074963;28;20174;-75
2023/04/29 03:33:45;;;;;;;8.27;7.47;;;10.30;99.90;;;;;;5083148;28;20186;-74
2023/04/29 03:36:12;;;;;;;7.37;6.67;;;10.30;99.90;;;;;;5082894;28;20182;-74
2023/04/29 03:38:37;;;;;;;8.20;7.40;;;10.30;99.90;;;;;;5077502;28;20173;-75
2023/04/29 03:41:04;;;;;;;7.30;6.70;;;10.30;99.90;;;;;;5074860;28;20264;-75
2023/04/29 03:43:30;;;;;;;8.43;6.43;;;10.20;99.90;;;;;;5073996;28;20274;-75
2023/04/29 03:45:55;;;;;;;7.33;6.53;;;10.20;99.90;;;;;;5074354;28;20209;-74
2023/04/29 03:48:21;;;;;;;10.00;7.17;;;10.30;99.90;;;;;;5074025;28;20649;-75
2023/04/29 03:50:47;;;;;;;6.47;5.87;;;10.30;99.90;;;;;;5073507;28;20286;-74
2023/04/29 03:53:13;;;;;;;7.70;6.90;;;10.30;99.90;;;;;;5074029;28;20170;-74
2023/04/29 03:55:39;;;;;;;9.90;7.33;;;10.30;99.90;;;;;;5073968;28;20184;-75
2023/04/29 03:58:05;;;;;;;9.37;7.10;;;10.30;99.90;;;;;;5074100;28;20222;-75
2023/04/29 04:00:31;;;;;;;7.90;7.20;;;10.30;99.90;;;;;;5074284;28;20176;-75
2023/04/29 04:02:57;;;;;;;7.10;6.50;;;10.30;99.90;;;;;;5073607;28;20244;-74
2023/04/29 04:05:24;;;;;;;7.00;6.33;;;10.30;99.90;;;;;;5073133;28;20205;-74
2023/04/29 04:07:53;;;;;;;7.43;6.63;;;10.30;99.90;;;;;;5073699;28;20963;-77
2023/04/29 04:10:19;;;;;;;7.03;6.40;;;10.20;99.90;;;;;;5073728;28;20181;-75
2023/04/29 04:12:46;;;;;;;6.57;6.07;;;10.20;99.90;;;;;;5073791;28;20166;-74
2023/04/29 04:15:12;;;;;;;7.17;6.47;;;10.20;99.90;;;;;;5073183;28;20181;-75
2023/04/29 04:17:38;;;;;;;6.73;6.13;;;10.10;99.90;;;;;;5073771;28;20178;-77
2023/04/29 04:20:04;;;;;;;7.13;6.47;;;10.10;99.90;;;;;;5073210;28;20657;-75
2023/04/29 04:22:30;;;;;;;6.73;6.13;;;10.10;99.90;;;;;;5073256;28;20232;-74
2023/04/29 04:24:56;;;;;;;7.17;6.50;;;10.20;99.90;;;;;;5073323;28;20683;-75
2023/04/29 04:27:22;;;;;;;6.43;5.83;;;10.20;99.90;;;;;;5072831;28;20177;-75
2023/04/29 04:29:52;;;;;;;6.43;5.83;;;10.30;99.90;;;;;;5072903;28;20659;-74
2023/04/29 04:32:17;;;;;;;6.63;6.03;;;10.30;99.90;;;;;;5073010;28;20601;-75
2023/04/29 04:34:43;;;;;;;6.23;5.63;;;10.40;99.90;;;;;;5072582;28;20214;-75
2023/04/29 04:37:09;;;;;;;6.90;5.80;;;10.50;99.90;;;;;;5072486;28;20181;-74
2023/04/29 04:39:35;;;;;;;6.63;6.03;;;10.50;99.90;;;;;;5073394;28;20257;-75
2023/04/29 04:42:02;;;;;;;6.67;5.97;;;10.50;99.90;;;;;;5073339;28;20233;-77
2023/04/29 04:44:28;;;;;;;7.03;6.00;;;10.60;99.90;;;;;;5072966;28;20242;-76
2023/04/29 04:46:54;;;;;;;6.53;5.93;;;10.60;99.90;;;;;;5072567;28;20203;-74
2023/04/29 04:49:20;;;;;;;5.97;5.37;;;10.50;99.90;;;;;;5075557;28;20190;-74
2023/04/29 04:51:46;;;;;;;5.77;5.27;;;10.60;99.90;;;;;;5074460;28;20184;-74
2023/04/29 04:54:12;;;;;;;5.83;5.30;;;10.60;99.90;;;;;;5073727;28;20213;-73
2023/04/29 04:56:38;;;;;;;5.20;4.80;;;10.60;99.90;;;;;;5082774;28;20203;-73
2023/04/29 04:59:03;;;;;;;5.70;5.20;;;10.60;99.90;;;;;;5085247;28;20196;-76
2023/04/29 05:01:29;;;;;;;6.03;5.47;;;10.60;99.90;;;;;;5085836;28;20596;-73
2023/04/29 05:03:56;;;;;;;6.83;6.20;;;10.70;99.90;;;;;;5082339;28;20234;-74
2023/04/29 05:06:21;;;;;;;6.33;5.73;;;10.80;99.90;;;;;;5072560;28;20220;-76
2023/04/29 05:08:47;;;;;;;5.40;4.93;;;10.80;99.90;;;;;;5072590;28;20180;-76
2023/04/29 05:11:17;;;;;;;5.70;5.20;;;11.00;99.90;;;;;;5072735;28;20180;-76
2023/04/29 05:13:43;;;;;;;5.70;5.20;;;11.10;99.90;;;;;;5072371;28;20193;-76
2023/04/29 05:16:08;;;;;;;4.93;4.53;;;11.30;99.90;;;;;;5072352;28;20555;-75
2023/04/29 05:18:34;;;;;;;4.63;4.23;;;11.40;99.90;;;;;;5072458;28;20212;-77
2023/04/29 05:21:00;;;;;;;6.40;4.07;;;11.50;99.90;;;;;;5072662;28;20535;-73
2023/04/29 05:23:26;;;;;;;4.73;4.37;;;11.50;99.90;;;;;;5071458;28;20183;-75
2023/04/29 05:25:52;;;;;;;6.20;4.27;;;11.50;99.90;;;;;;5070913;28;20253;-74
2023/04/29 05:28:18;;;;;;;4.07;3.70;;;11.70;99.90;;;;;;5072141;28;20626;-76
2023/04/29 05:30:44;;;;;;;4.63;4.30;;;11.80;99.90;;;;;;5072468;28;20183;-74
2023/04/29 05:33:10;;;;;;;7.00;3.87;;;12.00;99.90;;;;;;5072723;28;20167;-73
2023/04/29 05:35:36;;;;;;;4.40;4.00;;;12.20;99.90;;;;;;5072011;28;20213;-73
2023/04/29 05:38:02;;;;;;;4.67;3.80;;;12.30;99.90;;;;;;5072179;28;20178;-74
2023/04/29 05:40:28;;;;;;;4.33;3.60;;;12.50;99.90;;;;;;5072153;28;20311;-74
2023/04/29 05:42:54;;;;;;;3.73;3.43;;;12.60;99.90;;;;;;5071842;28;20294;-75
2023/04/29 05:45:20;;;;;;;3.57;3.27;;;12.80;99.90;;;;;;5072238;28;20221;-75
2023/04/29 05:47:45;;;;;;;4.23;3.50;;;12.90;99.90;;;;;;5071817;28;20600;-74
2023/04/29 05:50:12;;;;;;;4.10;3.70;;;13.00;99.90;;;;;;5073697;28;20189;-77
2023/04/29 05:52:39;;;;;;;6.10;5.53;;;12.90;99.90;;;;;;5076125;28;20628;-76
2023/04/29 05:55:05;;;;;;;4.03;3.63;;;12.70;99.90;;;;;;5076217;28;20530;-76
2023/04/29 05:57:31;;;;;;;4.13;3.73;;;12.70;99.90;;;;;;5075900;28;20251;-75
2023/04/29 05:59:58;;;;;;;4.03;3.70;;;12.80;99.90;;;;;;5076012;28;20254;-74
2023/04/29 06:02:24;;;;;;;5.63;3.73;;;12.90;99.90;;;;;;5075959;28;20175;-76
2023/04/29 06:04:51;;;;;;;4.67;3.47;;;12.90;99.90;;;;;;5074442;28;20654;-75
2023/04/29 06:07:17;;;;;;;3.30;3.10;;;13.00;99.90;;;;;;5075532;28;20308;-75
2023/04/29 06:09:43;;;;;;;3.23;3.03;;;13.20;99.90;;;;;;5076378;28;20253;-76
2023/04/29 06:12:09;;;;;;;3.20;3.00;;;13.10;99.90;;;;;;5075873;28;20179;-76
2023/04/29 06:14:35;;;;;;;4.90;3.20;;;13.20;99.90;;;;;;5075816;28;20619;-73
2023/04/29 06:17:01;;;;;;;3.53;3.23;;;13.30;99.90;;;;;;5093669;28;20175;-75
2023/04/29 06:19:27;;;;;;;3.20;3.00;;;13.40;99.90;;;;;;5081489;28;20172;-75
2023/04/29 06:21:52;;;;;;;3.70;3.20;;;13.50;99.90;;;;;;5077058;28;20528;-75
2023/04/29 06:24:18;;;;;;;2.97;2.77;;;13.60;99.90;;;;;;5083054;28;20175;-75
2023/04/29 06:26:44;;;;;;;3.07;2.87;;;13.70;99.90;;;;;;5088550;28;20198;-75
2023/04/29 06:29:10;;;;;;;2.90;2.70;;;13.80;99.90;;;;;;5085612;28;20163;-73
2023/04/29 06:31:36;;;;;;;3.07;2.87;;;13.80;99.90;;;;;;5075787;28;20182;-74
2023/04/29 06:34:01;;;;;;;3.97;2.87;;;13.80;99.90;;;;;;5076569;28;20197;-75
2023/04/29 06:36:27;;;;;;;3.00;2.80;;;13.80;99.90;;;;;;5075649;28;20250;-75
2023/04/29 06:38:53;;;;;;;2.80;2.60;;;13.80;99.90;;;;;;5073778;28;20206;-74
2023/04/29 06:41:18;;;;;;;2.80;2.60;;;13.80;99.90;;;;;;5075365;28;20528;-76
2023/04/29 06:43:44;;;;;;;3.43;2.70;;;13.90;99.90;;;;;;5075452;28;20222;-75
2023/04/29 06:46:10;;;;;;;3.17;2.77;;;14.20;99.90;;;;;;5075350;28;20207;-74
2023/04/29 06:48:36;;;;;;;3.10;2.80;;;14.40;99.90;;;;;;5074383;28;20251;-74
2023/04/29 06:51:02;;;;;;;3.17;2.97;;;14.60;99.90;;;;;;5074988;28;20171;-75
2023/04/29 06:53:27;;;;;;;3.10;2.90;;;14.80;99.90;;;;;;5075109;28;20180;-75
2023/04/29 06:55:53;;;;;;;3.00;2.80;;;15.10;99.90;;;;;;5073665;28;20186;-76
2023/04/29 06:58:19;;;;;;;2.93;2.73;;;15.10;99.90;;;;;;5074708;28;20175;-74
2023/04/29 07:00:50;;;;;;;2.53;2.43;;;15.20;99.90;;;;;;5074640;28;20267;-73
2023/04/29 07:03:17;;;;;;;2.83;2.70;;;15.00;99.90;;;;;;5073974;28;20191;-75
2023/04/29 07:05:46;;;;;;;2.57;2.37;;;15.10;99.90;;;;;;5074642;28;20262;-74
2023/04/29 07:08:12;;;;;;;2.50;2.40;;;15.20;99.90;;;;;;5074345;28;20670;-76
2023/04/29 07:10:38;;;;;;;3.23;3.00;;;15.30;99.90;;;;;;5074991;28;20531;-77
2023/04/29 07:13:04;;;;;;;2.90;2.70;;;15.40;99.90;;;;;;5074820;28;20549;-74
2023/04/29 07:15:33;;;;;;;2.93;2.70;;;15.50;99.90;;;;;;5074285;28;20180;-74
2023/04/29 07:17:59;;;;;;;2.70;2.50;;;15.50;99.90;;;;;;5074099;28;20171;-77
2023/04/29 07:20:26;;;;;;;3.00;2.80;;;15.40;99.90;;;;;;5074557;28;20555;-75
2023/04/29 07:22:52;;;;;;;2.47;2.37;;;15.40;99.90;;;;;;5074703;28;20696;-74
2023/04/29 07:25:18;;;;;;;2.30;2.20;;;15.50;99.90;;;;;;5074665;28;20195;-77
2023/04/29 07:27:43;;;;;;;3.13;2.70;;;15.70;99.90;;;;;;5074141;28;20181;-74
2023/04/29 07:30:09;;;;;;;2.57;2.47;;;15.90;99.90;;;;;;5074874;28;20178;-74
2023/04/29 07:32:35;;;;;;;2.90;2.70;;;16.10;99.90;;;;;;5073428;28;20179;-75
2023/04/29 07:35:01;;;;;;;3.23;2.60;;;16.80;99.90;;;;;;5074423;28;20187;-75
2023/04/29 07:37:27;;;;;;;2.27;2.17;;;16.20;99.90;;;;;;5083542;28;20263;-74
2023/04/29 07:39:53;;;;;;;2.33;2.23;;;16.30;99.90;;;;;;5074355;28;20613;-74
2023/04/29 07:42:19;;;;;;;3.27;2.50;;;16.30;99.90;;;;;;5074144;28;20181;-76
2023/04/29 07:44:44;;;;;;;2.40;2.30;;;16.30;99.90;;;;;;5073878;28;20222;-77
2023/04/29 07:47:11;;;;;;;2.30;2.20;;;16.30;99.90;;;;;;5073670;28;20182;-75
2023/04/29 07:49:37;;;;;;;2.53;2.43;;;16.40;99.90;;;;;;5080593;28;20191;-76
2023/04/29 07:52:08;;;;;;;2.73;2.57;;;16.40;99.90;;;;;;5087728;28;20210;-76
2023/04/29 07:54:35;;;;;;;2.50;2.17;;;16.30;99.90;;;;;;5086980;28;20185;-75
2023/04/29 07:57:03;;;;;;;2.57;2.23;;;16.30;99.90;;;;;;5078336;28;20196;-74
2023/04/29 07:59:29;;;;;;;2.60;2.50;;;16.40;99.90;;;;;;5073860;28;20508;-74
2023/04/29 08:01:56;;;;;;;2.17;2.07;;;16.50;99.90;;;;;;5073765;28;20177;-75
2023/04/29 08:04:22;;;;;;;2.40;2.23;;;16.50;99.90;;;;;;5073655;28;20612;-76
2023/04/29 08:06:48;;;;;;;2.77;2.67;;;16.60;99.90;;;;;;5077305;28;20566;-75
2023/04/29 08:09:15;;;;;;;2.50;2.30;;;16.90;99.90;;;;;;5080752;28;20202;-75
2023/04/29 08:11:42;;;;;;;3.93;3.07;;;17.20;99.90;;;;;;5079099;28;20167;-75
2023/04/29 08:14:08;;;;;;;2.77;2.57;;;17.50;99.90;;;;;;5074799;28;20190;-76
2023/04/29 08:16:33;;;;;;;3.00;2.80;;;17.90;99.90;;;;;;5072816;28;20182;-75
2023/04/29 08:18:59;;;;;;;2.50;2.30;;;18.10;99.90;;;;;;5073240;28;20202;-75
2023/04/29 08:21:26;;;;;;;2.20;2.10;;;18.30;99.90;;;;;;5073826;28;20661;-74
2023/04/29 08:23:53;;;;;;;1.80;1.70;;;18.50;99.90;;;;;;5074027;28;20275;-74
2023/04/29 08:26:18;;;;;;;1.73;1.63;;;18.60;99.80;;;;;;5072658;28;20218;-74
2023/04/29 08:28:44;;;;;;;1.87;1.80;;;18.50;99.40;;;;;;5073324;28;20170;-74
2023/04/29 08:31:20;;;;;;;1.90;1.80;;;18.50;99.50;;;;;;5074531;28;20532;-77
2023/04/29 08:33:47;;;;;;;1.67;1.67;;;18.40;98.80;;;;;;5072957;28;20263;-75
2023/04/29 08:36:13;;;;;;;4.00;1.57;;;18.50;98.90;;;;;;5073769;28;20171;-73
2023/04/29 08:38:38;;;;;;;2.10;2.00;;;18.40;98.80;;;;;;5073773;28;20223;-76
2023/04/29 08:41:08;;;;;;;1.77;1.70;;;18.50;99.10;;;;;;5073331;28;20170;-75
2023/04/29 08:43:36;;;;;;;2.00;1.93;;;18.70;99.30;;;;;;5073072;28;20751;-75
2023/04/29 08:46:03;;;;;;;1.90;1.80;;;18.80;99.50;;;;;;5073101;28;20214;-74
2023/04/29 08:48:30;;;;;;;1.73;1.60;;;18.80;99.60;;;;;;5073138;28;20743;-75
2023/04/29 08:50:57;;;;;;;1.80;1.70;;;18.90;98.60;;;;;;5071595;28;20167;-75
2023/04/29 08:53:23;;;;;;;1.70;1.70;;;19.00;97.70;;;;;;5073930;28;20655;-75
2023/04/29 08:55:49;;;;;;;1.80;1.70;;;19.20;98.10;;;;;;5083150;28;20189;-76
2023/04/29 08:58:15;;;;;;;1.57;1.57;;;19.30;97.90;;;;;;5087493;28;20592;-76
2023/04/29 09:00:42;;;;;;;2.10;2.00;;;19.30;98.20;;;;;;5073998;28;20210;-75
2023/04/29 09:03:24;;;;;;;2.00;1.90;;;19.40;98.20;;;;;;5073055;28;20209;-77
2023/04/29 09:05:53;;;;;;;1.73;1.63;;;19.50;97.20;;;;;;5071529;28;20624;-76
2023/04/29 09:08:23;;;;;;;1.60;1.60;;;19.50;97.00;;;;;;5072919;28;20213;-78
2023/04/29 09:10:52;;;;;;;2.07;1.60;;;19.60;96.90;;;;;;5072693;28;20171;-75
2023/04/29 09:13:29;;;;;;;2.43;1.97;;;19.80;97.40;;;;;;5073710;28;20251;-78
2023/04/29 09:15:56;;;;;;;1.60;1.60;;;20.00;97.60;;;;;;5087880;28;20194;-77
2023/04/29 11:05:07;;;;;;;2.50;1.20;;;19.70;94.20;;;;;;5070210;27;20593;-79
2023/04/29 11:07:33;;;;;;;2.27;1.37;;;19.70;95.20;;;;;;5069789;28;20246;-77
2023/04/29 11:10:01;;;;;;;1.33;1.23;;;19.70;95.10;;;;;;5069798;28;20187;-77
2023/04/29 11:12:27;;;;;;;2.00;1.30;;;19.70;95.20;;;;;;5069380;28;20649;-78
2023/04/29 11:15:01;;;;;;;1.30;1.30;;;19.80;95.00;;;;;;5070171;28;20175;-78
2023/04/29 11:17:35;;;;;;;2.13;1.80;;;19.80;95.10;;;;;;5071716;28;20159;-77
2023/04/29 11:20:01;;;;;;;1.50;1.50;;;19.60;95.50;;;;;;5067733;28;20685;-76
2023/04/29 11:22:32;;;;;;;1.10;1.10;;;19.30;95.70;;;;;;5048539;28;20200;-76
2023/04/29 11:25:10;;;;;;;1.17;1.10;;;19.10;95.80;;;;;;5048466;28;20183;-79
2023/04/29 11:27:41;;;;;;;1.17;1.07;;;19.20;95.90;;;;;;5047892;28;20222;-79
2023/04/29 11:30:09;;;;;;;1.10;1.10;;;19.00;95.80;;;;;;5049313;28;20176;-76
2023/04/29 11:32:38;;;;;;;1.50;1.40;;;18.90;96.00;;;;;;5049131;28;20206;-76
2023/04/29 11:35:11;;;;;;;0.83;0.83;;;18.90;95.90;;;;;;5049943;28;20659;-77
2023/04/29 11:37:38;;;;;;;1.20;1.20;;;18.90;96.20;;;;;;5050627;28;20184;-79
2023/04/29 11:40:05;;;;;;;1.33;1.23;;;19.10;96.00;;;;;;5053418;28;20219;-77
2023/04/29 11:42:41;;;;;;;1.27;1.17;;;19.40;96.00;;;;;;5048593;28;20687;-80
2023/04/29 11:45:07;;;;;;;1.03;1.03;;;19.60;95.80;;;;;;5049194;28;20180;-78
2023/04/29 11:47:33;;;;;;;2.43;1.10;;;19.80;95.30;;;;;;5048818;28;20705;-80
2023/04/29 11:50:07;;;;;;;1.20;1.20;;;20.10;94.90;;;;;;5049025;28;20255;-77
2023/04/29 11:52:35;;;;;;;1.80;1.70;;;20.40;95.10;;;;;;5048804;28;20282;-78
2023/04/29 11:55:02;;;;;;;1.50;1.40;;;20.60;95.00;;;;;;5049207;28;20164;-78
2023/04/29 11:57:28;;;;;;;1.20;1.20;;;20.80;94.30;;;;;;5068505;28;20229;-77
2023/04/29 11:59:56;;;;;;;1.10;1.10;;;20.90;94.00;;;;;;5069285;28;20262;-79
2023/04/29 12:02:31;;;;;;;0.97;0.97;;;20.70;93.60;;;;;;5068510;28;20198;-79
2023/04/29 12:04:59;;;;;;;1.30;1.10;;;20.70;93.50;;;;;;5069537;28;20167;-80
2023/04/29 12:07:25;;;;;;;0.93;0.93;;;20.90;94.10;;;;;;5067694;28;20545;-78
2023/04/29 12:09:51;;;;;;;0.93;0.93;;;20.90;93.50;;;;;;5072460;28;20601;-79
2023/04/29 12:12:17;;;;;;;0.87;0.87;;;20.80;93.50;;;;;;5070680;28;20258;-78
2023/04/29 12:14:43;;;;;;;1.10;1.10;;;20.60;93.90;;;;;;5062366;28;20748;-78
2023/04/29 12:17:09;;;;;;;1.07;0.90;;;20.50;94.10;;;;;;5053590;28;20198;-80
2023/04/29 12:19:39;;;;;;;1.10;1.10;;;20.40;94.00;;;;;;5055220;28;20605;-79
2023/04/29 12:22:05;;;;;;;1.63;1.20;;;20.40;93.90;;;;;;5054472;28;20183;-78
2023/04/29 12:24:36;;;;;;;1.07;1.03;;;20.10;93.70;;;;;;5055079;28;20184;-77
2023/04/29 12:27:02;;;;;;;0.77;0.77;;;19.90;94.30;;;;;;5053280;28;20246;-77
2023/04/29 12:29:28;;;;;;;0.80;0.80;;;19.80;94.40;;;;;;5055259;28;20179;-79
2023/04/29 12:31:55;;;;;;;0.70;0.70;;;19.70;94.00;;;;;;5054886;28;20222;-78
2023/04/29 12:34:32;;;;;;;0.90;0.90;;;19.40;94.00;;;;;;5053476;28;20187;-79
2023/04/29 12:37:01;;;;;;;0.70;0.70;;;19.30;94.00;;;;;;5054506;28;20655;-77
2023/04/29 12:39:27;;;;;;;0.80;0.80;;;19.40;93.70;;;;;;5057673;28;20176;-78
2023/04/29 12:42:00;;;;;;;0.70;0.70;;;19.40;93.80;;;;;;5066635;28;20195;-78
2023/04/29 12:44:33;;;;;;;0.80;0.80;;;19.40;93.00;;;;;;5055787;28;20222;-76
2023/04/29 12:47:09;;;;;;;0.80;0.80;;;19.50;92.80;;;;;;5054286;28;20176;-79
2023/04/29 12:49:42;;;;;;;0.80;0.80;;;19.60;93.00;;;;;;5054855;28;20172;-78
2023/04/29 12:52:09;;;;;;;0.60;0.60;;;19.70;92.90;;;;;;5055138;28;20175;-79
2023/04/29 12:54:39;;;;;;;0.40;0.40;;;19.70;91.90;;;;;;5040757;28;20211;-78
2023/04/29 12:57:05;;;;;;;0.60;0.60;;;19.80;90.40;;;;;;5034266;28;20179;-79
2023/04/29 12:59:31;;;;;;;0.50;0.50;;;19.90;90.40;;;;;;5034682;28;20188;-80
2023/04/29 13:01:57;;;;;;;0.50;0.50;;;19.90;90.30;;;;;;5036951;28;20184;-78
2023/04/29 13:04:22;;;;;;;0.40;0.40;;;19.90;90.00;;;;;;5033006;28;20228;-79
2023/04/29 13:06:50;;;;;;;0.50;0.50;;;20.00;89.90;;;;;;5034052;28;20180;-79
2023/04/29 13:09:16;;;;;;;0.60;0.60;;;20.20;91.00;;;;;;5034667;28;20168;-77
2023/04/29 13:11:41;;;;;;;0.60;0.60;;;20.30;91.30;;;;;;5033517;28;20734;-80
2023/04/29 13:14:08;;;;;;;1.40;0.70;;;20.40;91.10;;;;;;5032209;28;20271;-79
2023/04/29 13:16:33;;;;;;;0.73;0.73;;;20.40;90.90;;;;;;5034318;28;20555;-78
2023/04/29 13:19:00;;;;;;;0.70;0.70;;;20.50;91.00;;;;;;5033138;28;20244;-79
2023/04/29 13:21:27;;;;;;;0.70;0.70;;;20.50;91.10;;;;;;5033165;28;20184;-77
2023/04/29 13:23:53;;;;;;;0.87;0.87;;;20.50;91.40;;;;;;5033320;28;20286;-78
2023/04/29 13:26:19;;;;;;;0.60;0.60;;;20.60;91.30;;;;;;5032960;28;20671;-79
2023/04/29 13:28:45;;;;;;;0.90;0.90;;;20.60;91.30;;;;;;5034034;28;20513;-76
2023/04/29 13:31:11;;;;;;;1.20;0.93;;;20.70;92.20;;;;;;5033922;28;20175;-78
2023/04/29 13:33:37;;;;;;;0.83;0.83;;;20.50;92.30;;;;;;5034100;28;20177;-79
2023/04/29 13:36:02;;;;;;;0.93;0.90;;;20.50;92.00;;;;;;5033762;28;20263;-78
2023/04/29 13:38:29;;;;;;;0.90;0.90;;;20.40;92.10;;;;;;5034693;28;20176;-79
2023/04/29 13:40:55;;;;;;;0.90;0.90;;;20.40;91.80;;;;;;5033191;28;20219;-80
2023/04/29 13:43:20;;;;;;;0.80;0.80;;;20.50;92.20;;;;;;5033428;28;20239;-78
2023/04/29 13:45:46;;;;;;;1.30;1.30;;;20.50;92.30;;;;;;5031496;28;20636;-78
2023/04/29 13:48:12;;;;;;;1.40;1.30;;;20.50;91.80;;;;;;5031604;28;20542;-78
2023/04/29 13:50:40;;;;;;;1.07;1.07;;;20.60;91.60;;;;;;5033355;28;20637;-78
2023/04/29 13:53:06;;;;;;;1.27;1.20;;;20.60;92.20;;;;;;5032432;28;20187;-80
2023/04/29 13:55:33;;;;;;;0.90;0.90;;;20.50;92.50;;;;;;5032037;28;20219;-80
2023/04/29 13:58:00;;;;;;;1.03;1.03;;;20.50;92.60;;;;;;5032988;28;20186;-81
2023/04/29 14:00:26;;;;;;;0.70;0.70;;;20.20;92.00;;;;;;5033404;28;20583;-79
2023/04/29 14:02:52;;;;;;;0.60;0.60;;;20.00;91.30;;;;;;5032686;28;20243;-79
2023/04/29 14:05:18;;;;;;;0.60;0.60;;;19.70;91.50;;;;;;5032593;28;20172;-81
2023/04/29 14:07:43;;;;;;;0.50;0.50;;;19.60;91.70;;;;;;5033079;28;20184;-79
2023/04/29 14:10:10;;;;;;;0.83;0.70;;;19.60;91.60;;;;;;5033589;28;20230;-80
2023/04/29 14:12:36;;;;;;;0.87;0.87;;;19.50;91.70;;;;;;5033454;28;20184;-80
2023/04/29 14:15:02;;;;;;;0.70;0.60;;;19.40;92.20;;;;;;5033431;28;20181;-81
2023/04/29 14:17:28;;;;;;;2.80;2.53;;;19.20;92.00;;;;;;5033581;28;20181;-80
2023/04/29 14:19:54;;;;;;;2.20;2.10;;;19.10;93.00;;;;;;5033325;28;20180;-80
2023/04/29 14:22:20;;;;;;;1.23;0.67;;;18.90;93.20;;;;;;5043912;28;20176;-79
2023/04/29 14:24:45;;;;;;;0.70;0.70;;;18.80;93.10;;;;;;5057824;28;20632;-80
2023/04/29 14:27:11;;;;;;;2.77;0.40;;;18.70;93.20;;;;;;5053558;28;20184;-81
2023/04/29 14:29:37;;;;;;;0.40;0.40;;;18.70;92.90;;;;;;5053916;28;20187;-81
2023/04/29 14:32:03;;;;;;;1.13;0.40;;;18.70;92.50;;;;;;5052528;28;20646;-79
2023/04/29 14:34:29;;;;;;;0.40;0.40;;;18.70;92.70;;;;;;5050909;28;20176;-80